Watkinsville, Georgia
Current Conditions -  °F | °C
As of 10:51 PM on Thursday 27 Nov 2014 (Local Time) from KAHN Reporting Station
Clear Clear  
Wind Chill: 29°   Ceiling: Unl
Heat Index: 35°   Visibility: 10mi
Dew Point: 26°   Wind: 7mph
Humidity: 70%   Direction: 290°WNW
Pressure: 30.34"   Gusts: NA
Location:  33.86°N, 83.41°W
Report Text: KAHN 280351Z AUTO 29006KT 10SM CLR 02/M03 A3034 RMK AO2 SLP281 T00171033
Loading
Personal Weather Stations






























Interactive Weather Map New forecast layout! Learn more

10-Day Weather Forecast

Advertisements
Track Severe Weather on mobile